createdAt,value
2023-01-25T00:02:11.706Z,6.53
2023-01-25T00:04:42.047Z,5.37
2023-01-25T00:07:10.993Z,4.87
2023-01-25T00:09:39.551Z,5.30
2023-01-25T00:12:08.415Z,4.43
2023-01-25T00:14:37.002Z,4.93
2023-01-25T00:17:06.098Z,5.33
2023-01-25T00:19:34.797Z,6.67
2023-01-25T00:22:04.912Z,6.20
2023-01-25T00:24:33.651Z,7.50
2023-01-25T00:27:03.329Z,5.77
2023-01-25T00:29:33.646Z,7.53
2023-01-25T00:32:28.925Z,7.27
2023-01-25T00:34:59.377Z,8.33
2023-01-25T00:37:37.954Z,9.33
2023-01-25T00:40:07.628Z,8.20
2023-01-25T00:42:36.321Z,6.93
2023-01-25T00:45:07.503Z,7.93
2023-01-25T00:47:36.195Z,7.10
2023-01-25T00:50:07.875Z,7.23
2023-01-25T00:52:38.199Z,7.00
2023-01-25T00:55:09.566Z,7.20
2023-01-25T00:57:38.769Z,6.77
2023-01-25T01:00:08.961Z,6.10
2023-01-25T01:02:37.666Z,5.80
2023-01-25T01:05:07.303Z,6.10
2023-01-25T01:07:37.902Z,6.23
2023-01-25T01:10:07.883Z,4.87
2023-01-25T01:12:36.501Z,5.47
2023-01-25T01:15:06.404Z,5.27
2023-01-25T01:17:36.700Z,5.63
2023-01-25T01:20:05.764Z,5.30
2023-01-25T01:22:34.333Z,4.27
2023-01-25T01:25:04.781Z,4.03
2023-01-25T01:27:33.472Z,3.60
2023-01-25T01:30:02.072Z,3.63
2023-01-25T01:32:31.724Z,4.33
2023-01-25T01:35:00.554Z,4.87
2023-01-25T01:37:29.199Z,5.00
2023-01-25T01:39:57.970Z,5.60
2023-01-25T01:42:28.082Z,6.83
2023-01-25T01:44:57.035Z,6.40
2023-01-25T01:47:29.832Z,6.20
2023-01-25T01:50:06.419Z,6.33
2023-01-25T01:52:39.128Z,5.60
2023-01-25T01:55:11.975Z,6.57
2023-01-25T01:57:48.937Z,4.93
2023-01-25T02:00:21.192Z,5.47
2023-01-25T02:02:51.995Z,4.97
2023-01-25T02:05:26.063Z,5.33
2023-01-25T02:07:57.208Z,5.37
2023-01-25T02:10:28.295Z,5.40
2023-01-25T02:13:00.441Z,5.00
2023-01-25T02:15:33.825Z,4.90
2023-01-25T02:18:04.704Z,4.90
2023-01-25T02:20:38.379Z,4.93
2023-01-25T02:23:15.838Z,3.93
2023-01-25T02:25:45.896Z,3.80
2023-01-25T02:28:21.910Z,4.27
2023-01-25T02:30:51.927Z,4.53
2023-01-25T02:33:20.653Z,6.00
2023-01-25T02:35:53.952Z,5.67
2023-01-25T02:38:23.822Z,6.13
2023-01-25T02:41:01.889Z,7.23
2023-01-25T02:43:36.427Z,6.40
2023-01-25T02:46:13.243Z,5.33
2023-01-25T02:48:46.184Z,4.83
2023-01-25T02:51:14.906Z,4.63
2023-01-25T02:53:43.614Z,4.13
2023-01-25T02:56:14.632Z,3.80
2023-01-25T02:58:43.543Z,3.60
2023-01-25T03:01:12.429Z,2.00
2023-01-25T03:03:43.393Z,2.60
2023-01-25T03:06:12.401Z,1.80
2023-01-25T03:08:42.224Z,1.90
2023-01-25T03:11:10.981Z,1.70
2023-01-25T03:13:41.406Z,1.30
2023-01-25T03:16:12.381Z,1.80
2023-01-25T03:18:43.299Z,1.60
2023-01-25T03:21:14.056Z,1.60
2023-01-25T03:23:44.000Z,1.30
2023-01-25T03:26:17.289Z,1.20
2023-01-25T03:29:08.486Z,1.53
2023-01-25T03:31:40.806Z,1.43
2023-01-25T03:34:09.772Z,1.60
2023-01-25T03:36:41.919Z,1.40
2023-01-25T03:39:11.086Z,1.40
2023-01-25T03:41:43.555Z,1.40
2023-01-25T03:44:16.773Z,1.40
2023-01-25T03:46:47.621Z,1.47
2023-01-25T03:49:16.378Z,1.50
2023-01-25T03:51:45.008Z,1.90
2023-01-25T03:54:14.801Z,1.50
2023-01-25T03:56:43.397Z,1.57
2023-01-25T03:59:27.050Z,1.33
2023-01-25T04:01:57.168Z,1.73
2023-01-25T04:04:25.885Z,1.50
2023-01-25T04:06:55.457Z,1.50
2023-01-25T04:09:25.745Z,1.30
2023-01-25T04:11:58.146Z,1.33
2023-01-25T04:14:43.728Z,1.77
2023-01-25T04:17:16.704Z,1.63
2023-01-25T04:19:51.600Z,1.70
2023-01-25T04:22:23.418Z,1.77
2023-01-25T04:24:55.404Z,2.30
2023-01-25T04:27:24.331Z,2.10
2023-01-25T04:30:12.410Z,2.50
2023-01-25T04:32:42.067Z,2.43
2023-01-25T04:35:27.877Z,2.90
2023-01-25T04:37:57.301Z,2.87
2023-01-25T04:40:28.626Z,3.40
2023-01-25T04:42:58.697Z,3.93
2023-01-25T04:45:29.342Z,4.60
2023-01-25T04:48:00.522Z,5.23
2023-01-25T04:50:30.267Z,6.27
2023-01-25T04:53:00.306Z,5.03
2023-01-25T04:55:33.590Z,4.73
2023-01-25T04:58:03.913Z,4.27
2023-01-25T05:00:36.113Z,4.03
2023-01-25T05:03:05.752Z,4.10
2023-01-25T05:05:34.812Z,3.80
2023-01-25T05:08:08.168Z,4.13
2023-01-25T05:10:37.707Z,3.83
2023-01-25T05:13:25.244Z,4.63
2023-01-25T05:16:04.701Z,4.00
2023-01-25T05:18:47.585Z,2.97
2023-01-25T05:21:46.895Z,3.63
2023-01-25T05:24:16.132Z,2.70
2023-01-25T05:27:10.977Z,2.40
2023-01-25T05:29:59.741Z,2.93
2023-01-25T05:32:44.198Z,2.30
2023-01-25T05:35:13.058Z,2.20
2023-01-25T05:37:41.943Z,2.43
2023-01-25T05:40:17.323Z,2.27
2023-01-25T05:42:46.794Z,2.20
2023-01-25T05:45:19.346Z,2.00
2023-01-25T05:47:54.356Z,1.90
2023-01-25T05:50:23.556Z,2.40
2023-01-25T05:52:59.861Z,2.80
2023-01-25T05:55:30.127Z,2.07
2023-01-25T05:58:03.320Z,1.93
2023-01-25T06:00:32.191Z,2.10
2023-01-25T06:03:03.805Z,2.30
2023-01-25T06:05:35.573Z,2.17
2023-01-25T06:08:04.293Z,1.63
2023-01-25T06:10:45.343Z,1.80
2023-01-25T06:13:14.341Z,2.00
2023-01-25T06:15:44.361Z,1.80
2023-01-25T06:18:35.460Z,2.07
2023-01-25T06:21:33.215Z,2.17
2023-01-25T06:24:01.925Z,2.57
2023-01-25T06:26:30.901Z,2.10
2023-01-25T06:28:59.559Z,1.90
2023-01-25T06:31:28.313Z,2.27
2023-01-25T06:34:01.091Z,2.20
2023-01-25T06:36:30.405Z,2.10
2023-01-25T06:38:59.301Z,2.10
2023-01-25T06:41:28.175Z,2.50
2023-01-25T06:43:56.863Z,2.00
2023-01-25T06:46:25.581Z,2.20
2023-01-25T06:48:54.364Z,2.07
2023-01-25T06:51:24.479Z,3.23
2023-01-25T06:53:53.194Z,2.37
2023-01-25T06:56:23.359Z,2.13
2023-01-25T06:58:52.345Z,2.30
2023-01-25T07:01:27.097Z,2.60
2023-01-25T07:03:57.808Z,2.10
2023-01-25T07:06:32.698Z,2.90
2023-01-25T07:09:05.477Z,2.93
2023-01-25T07:11:34.879Z,2.60
2023-01-25T07:14:04.277Z,2.80
2023-01-25T07:16:37.261Z,2.60
2023-01-25T07:19:07.760Z,3.00
2023-01-25T07:21:38.047Z,2.60
2023-01-25T07:24:07.589Z,3.10
2023-01-25T07:26:36.179Z,4.10
2023-01-25T07:29:04.883Z,2.50
2023-01-25T07:31:34.029Z,2.40
2023-01-25T07:34:02.886Z,3.37
2023-01-25T07:36:32.450Z,2.77
2023-01-25T07:39:02.624Z,2.17
2023-01-25T07:41:31.240Z,3.43
2023-01-25T07:44:00.011Z,2.57
2023-01-25T07:46:36.179Z,2.10
2023-01-25T07:49:07.489Z,2.67
2023-01-25T07:51:36.383Z,2.30
2023-01-25T07:54:07.288Z,2.03
2023-01-25T07:56:37.993Z,2.57
2023-01-25T07:59:08.541Z,3.20
2023-01-25T08:01:37.658Z,2.00
2023-01-25T08:04:07.097Z,2.80
2023-01-25T08:06:39.157Z,2.37
2023-01-25T08:09:12.905Z,2.40
2023-01-25T08:11:43.035Z,2.10
2023-01-25T08:14:11.793Z,1.97
2023-01-25T08:16:40.512Z,2.27
2023-01-25T08:19:10.772Z,2.83
2023-01-25T08:21:39.853Z,2.57
2023-01-25T08:24:10.743Z,2.23
2023-01-25T08:26:39.736Z,2.50
2023-01-25T08:29:08.418Z,2.70
2023-01-25T08:31:37.766Z,1.90
2023-01-25T08:34:06.999Z,2.10
2023-01-25T08:36:36.077Z,2.40
2023-01-25T08:39:09.683Z,2.00
2023-01-25T08:41:40.274Z,1.90
2023-01-25T08:44:08.905Z,2.27
2023-01-25T08:46:37.523Z,1.93
2023-01-25T08:49:07.712Z,2.57
2023-01-25T08:51:36.377Z,1.70
2023-01-25T08:54:05.879Z,2.10
2023-01-25T08:56:34.922Z,1.93
2023-01-25T08:59:06.180Z,1.97
2023-01-25T09:01:35.248Z,2.10
2023-01-25T09:04:03.921Z,1.90
2023-01-25T09:06:32.855Z,2.67
2023-01-25T09:09:01.577Z,2.03
2023-01-25T09:11:30.302Z,1.63
2023-01-25T09:13:59.259Z,1.60
2023-01-25T09:16:30.291Z,1.67
2023-01-25T09:19:01.498Z,2.00
2023-01-25T09:21:30.880Z,1.63
2023-01-25T09:24:07.876Z,1.83
2023-01-25T09:26:38.688Z,2.00
2023-01-25T09:29:08.919Z,1.77
2023-01-25T09:31:43.948Z,1.70
2023-01-25T09:34:16.787Z,2.30
2023-01-25T09:36:45.686Z,1.50
2023-01-25T09:39:14.472Z,1.97
2023-01-25T09:42:22.588Z,2.33
2023-01-25T09:45:09.830Z,1.57
2023-01-25T09:47:49.097Z,2.00
2023-01-25T09:50:35.505Z,2.90
2023-01-25T09:53:28.997Z,2.53
2023-01-25T09:56:00.811Z,2.37
2023-01-25T09:58:36.824Z,2.17
2023-01-25T10:01:36.657Z,2.67
2023-01-25T10:04:15.000Z,1.83
2023-01-25T10:06:59.610Z,2.30
2023-01-25T10:09:42.733Z,2.10
2023-01-25T10:12:17.432Z,2.10
2023-01-25T10:14:46.143Z,1.80
2023-01-25T10:17:21.775Z,1.97
2023-01-25T10:20:06.398Z,2.97
2023-01-25T10:22:42.935Z,1.63
2023-01-25T10:25:32.851Z,1.57
2023-01-25T10:28:30.133Z,1.63
2023-01-25T10:31:03.544Z,2.10
2023-01-25T10:33:37.534Z,2.40
2023-01-25T10:36:11.776Z,1.80
2023-01-25T10:38:42.976Z,2.23
2023-01-25T10:41:17.035Z,1.80
2023-01-25T10:43:46.453Z,1.83
2023-01-25T10:46:26.647Z,1.73
2023-01-25T10:48:57.711Z,2.83
2023-01-25T10:51:33.436Z,2.27
2023-01-25T10:54:07.486Z,1.73
2023-01-25T10:56:38.604Z,2.30
2023-01-25T10:59:15.761Z,1.83
2023-01-25T11:01:44.717Z,2.40
2023-01-25T11:04:32.570Z,2.00
2023-01-25T11:07:05.247Z,2.20
2023-01-25T11:09:40.025Z,2.80
2023-01-25T11:12:19.657Z,2.40
2023-01-25T11:14:51.081Z,2.70
2023-01-25T11:17:30.467Z,2.40
2023-01-25T11:20:19.872Z,2.07
2023-01-25T11:22:55.759Z,2.40
2023-01-25T11:25:30.481Z,3.07
2023-01-25T11:28:21.051Z,2.20
2023-01-25T11:30:50.705Z,2.93
2023-01-25T11:33:21.506Z,2.90
2023-01-25T11:36:12.258Z,3.47
2023-01-25T11:38:50.401Z,3.47
2023-01-25T11:41:26.840Z,3.87
2023-01-25T11:44:11.794Z,2.90
2023-01-25T11:46:55.060Z,2.67
2023-01-25T11:49:47.359Z,4.23
2023-01-25T11:52:24.027Z,3.70
2023-01-25T11:55:05.012Z,3.43
2023-01-25T11:57:55.179Z,2.30
2023-01-25T12:00:40.185Z,2.07
2023-01-25T12:03:36.495Z,1.77
2023-01-25T12:06:09.927Z,1.40
2023-01-25T12:09:02.222Z,1.87
2023-01-25T12:11:45.840Z,2.03
2023-01-25T12:14:24.190Z,1.30
2023-01-25T12:17:08.311Z,2.33
2023-01-25T12:19:58.087Z,1.27
2023-01-25T12:22:41.756Z,1.40
2023-01-25T12:25:22.632Z,1.37
2023-01-25T12:28:06.786Z,1.33
2023-01-25T12:30:46.303Z,1.10
2023-01-25T12:33:18.676Z,2.07
2023-01-25T12:35:52.131Z,3.50
2023-01-25T12:38:27.777Z,1.90
2023-01-25T12:41:00.833Z,1.13
2023-01-25T12:43:37.053Z,1.50
2023-01-25T12:46:19.355Z,1.40
2023-01-25T12:48:52.636Z,1.83
2023-01-25T12:51:23.856Z,1.60
2023-01-25T12:53:54.798Z,1.80
2023-01-25T12:56:34.123Z,1.43
2023-01-25T12:59:15.400Z,2.10
2023-01-25T13:01:49.288Z,1.60
2023-01-25T13:04:33.767Z,2.23
2023-01-25T13:07:08.885Z,1.43
2023-01-25T13:09:45.193Z,1.60
2023-01-25T13:12:14.179Z,1.97
2023-01-25T13:14:44.479Z,1.43
2023-01-25T13:17:22.484Z,1.70
2023-01-25T13:19:53.582Z,1.43
2023-01-25T13:23:03.892Z,1.47
2023-01-25T13:25:32.607Z,1.03
2023-01-25T13:28:38.568Z,1.40
2023-01-25T13:31:08.783Z,1.23
2023-01-25T13:33:37.678Z,0.90
2023-01-25T13:36:40.043Z,1.20
2023-01-25T13:39:43.800Z,1.00
2023-01-25T13:42:23.917Z,1.10
2023-01-25T13:44:56.158Z,1.80
2023-01-25T13:47:29.186Z,1.40
2023-01-25T13:50:03.826Z,0.97
2023-01-25T13:52:32.629Z,0.90
2023-01-25T13:55:01.481Z,1.40
2023-01-25T13:57:32.449Z,1.80
2023-01-25T14:00:10.093Z,1.60
2023-01-25T14:02:43.799Z,1.27
2023-01-25T14:05:20.680Z,1.23
2023-01-25T14:07:52.675Z,1.57
2023-01-25T14:10:24.344Z,2.27
2023-01-25T14:12:54.580Z,1.50
2023-01-25T14:15:25.959Z,1.70
2023-01-25T14:18:15.279Z,1.53
2023-01-25T14:20:45.109Z,2.47
2023-01-25T14:23:25.248Z,2.87
2023-01-25T14:25:55.312Z,1.47
2023-01-25T14:28:24.124Z,1.70
2023-01-25T14:30:55.036Z,3.43
2023-01-25T14:33:28.760Z,2.57
2023-01-25T14:36:11.848Z,2.20
2023-01-25T14:38:45.471Z,1.93
2023-01-25T14:41:17.409Z,2.70
2023-01-25T14:43:48.786Z,2.40
2023-01-25T14:46:26.378Z,2.47
2023-01-25T14:49:11.405Z,1.60
2023-01-25T14:51:45.092Z,21.10
2023-01-25T14:54:19.141Z,2.40
2023-01-25T14:56:50.074Z,10.87
2023-01-25T14:59:38.213Z,12.40
2023-01-25T15:02:19.904Z,12.67
2023-01-25T15:05:10.945Z,15.50
2023-01-25T15:07:46.204Z,13.43
2023-01-25T15:10:21.110Z,14.60
2023-01-25T15:13:12.733Z,14.13
2023-01-25T15:15:55.214Z,15.63
2023-01-25T15:18:46.936Z,15.60
2023-01-25T15:21:18.743Z,16.43
2023-01-25T15:23:50.024Z,15.77
2023-01-25T15:26:22.126Z,15.03
2023-01-25T15:28:51.861Z,15.73
2023-01-25T15:31:23.506Z,14.37
2023-01-25T15:33:52.613Z,14.60
2023-01-25T15:36:22.686Z,14.07
2023-01-25T15:38:51.646Z,15.07
2023-01-25T15:41:20.677Z,16.37
2023-01-25T15:43:50.474Z,15.80
2023-01-25T15:46:23.152Z,13.73
2023-01-25T15:48:53.521Z,13.67
2023-01-25T15:51:24.028Z,13.90
2023-01-25T15:53:54.083Z,10.63
2023-01-25T15:56:24.971Z,6.67
2023-01-25T15:58:55.011Z,2.40
2023-01-25T16:01:27.398Z,2.57
2023-01-25T16:03:56.579Z,2.57
2023-01-25T16:06:40.865Z,2.30
2023-01-25T16:09:19.294Z,2.03
2023-01-25T16:11:48.858Z,2.00
2023-01-25T16:14:17.547Z,2.20
2023-01-25T16:16:49.476Z,2.17
2023-01-25T16:19:22.963Z,2.07
2023-01-25T16:21:53.420Z,2.30
2023-01-25T16:24:22.149Z,4.47
2023-01-25T16:26:53.825Z,2.90
2023-01-25T16:29:23.913Z,1.90
2023-01-25T16:31:53.236Z,1.60
2023-01-25T16:34:22.503Z,2.00
2023-01-25T16:36:53.364Z,1.40
2023-01-25T16:39:23.623Z,1.93
2023-01-25T16:41:52.570Z,2.10
2023-01-25T16:44:21.632Z,2.03
2023-01-25T16:46:50.560Z,1.70
2023-01-25T16:49:20.792Z,1.67
2023-01-25T16:51:50.751Z,1.63
2023-01-25T16:54:21.284Z,2.73
2023-01-25T16:56:50.693Z,2.40
2023-01-25T16:59:23.802Z,11.23
2023-01-25T17:01:53.634Z,8.93
2023-01-25T17:04:22.406Z,7.67
2023-01-25T17:06:53.172Z,2.70
2023-01-25T17:09:25.484Z,2.37
2023-01-25T17:11:56.417Z,2.77
2023-01-25T17:14:25.303Z,2.37
2023-01-25T17:16:54.822Z,3.00
2023-01-25T17:19:24.082Z,4.37
2023-01-25T17:21:52.806Z,3.53
2023-01-25T17:24:23.298Z,5.33
2023-01-25T17:26:52.253Z,4.90
2023-01-25T17:29:21.959Z,3.10
2023-01-25T17:31:50.939Z,2.63
2023-01-25T17:34:21.821Z,2.93
2023-01-25T17:36:51.815Z,3.60
2023-01-25T17:39:22.820Z,2.70
2023-01-25T17:41:52.874Z,3.03
2023-01-25T17:44:23.350Z,2.60
2023-01-25T17:46:52.602Z,2.30
2023-01-25T17:49:22.667Z,2.93
2023-01-25T17:51:51.434Z,1.43
2023-01-25T17:54:20.842Z,1.60
2023-01-25T17:56:51.052Z,1.70
2023-01-25T17:59:19.713Z,1.50
2023-01-25T18:01:48.441Z,1.93
2023-01-25T18:04:18.247Z,1.60
2023-01-25T18:06:47.213Z,2.17
2023-01-25T18:09:15.941Z,1.50
2023-01-25T18:11:45.340Z,1.93
2023-01-25T18:14:17.109Z,1.30
2023-01-25T18:16:46.758Z,1.70
2023-01-25T18:19:15.607Z,1.37
2023-01-25T18:21:44.721Z,1.40
2023-01-25T18:24:31.605Z,1.43
2023-01-25T18:27:02.947Z,1.50
2023-01-25T18:29:45.774Z,1.80
2023-01-25T18:32:15.545Z,2.23
2023-01-25T18:34:44.579Z,2.57
2023-01-25T18:37:21.975Z,1.70
2023-01-25T18:39:52.482Z,1.73
2023-01-25T18:42:23.734Z,1.77
2023-01-25T18:44:53.892Z,1.60
2023-01-25T18:47:23.891Z,1.60
2023-01-25T18:49:53.666Z,1.37
2023-01-25T18:52:24.102Z,1.10
2023-01-25T18:54:55.375Z,1.20
2023-01-25T18:57:24.497Z,1.13
2023-01-25T18:59:54.832Z,1.00
2023-01-25T19:02:24.119Z,1.33
2023-01-25T19:04:52.898Z,1.20
2023-01-25T19:07:21.767Z,0.90
2023-01-25T19:09:50.448Z,1.30
2023-01-25T19:12:20.190Z,1.70
2023-01-25T19:14:49.036Z,1.10
2023-01-25T19:17:19.364Z,1.10
2023-01-25T19:19:48.136Z,1.40
2023-01-25T19:22:16.956Z,1.57
2023-01-25T19:24:45.971Z,1.23
2023-01-25T19:27:14.874Z,1.13
2023-01-25T19:29:43.910Z,1.37
2023-01-25T19:32:12.914Z,1.20
2023-01-25T19:34:43.177Z,1.13
2023-01-25T19:37:12.078Z,1.40
2023-01-25T19:39:40.955Z,1.07
2023-01-25T19:42:09.839Z,1.30
2023-01-25T19:44:38.675Z,1.70
2023-01-25T19:47:07.782Z,1.83
2023-01-25T19:49:36.632Z,1.50
2023-01-25T19:52:07.062Z,2.23
2023-01-25T19:54:35.964Z,5.00
2023-01-25T19:57:05.448Z,1.90
2023-01-25T19:59:34.676Z,2.37
2023-01-25T20:02:03.526Z,1.27
2023-01-25T20:04:32.611Z,1.40
2023-01-25T20:07:01.889Z,1.50
2023-01-25T20:09:33.479Z,1.60
2023-01-25T20:12:06.173Z,1.80
2023-01-25T20:14:35.210Z,1.70
2023-01-25T20:17:04.092Z,1.80
2023-01-25T20:19:35.318Z,1.47
2023-01-25T20:22:04.668Z,1.83
2023-01-25T20:24:34.900Z,1.00
2023-01-25T20:27:04.849Z,1.20
2023-01-25T20:29:33.779Z,1.30
2023-01-25T20:32:05.789Z,1.20
2023-01-25T20:34:34.749Z,1.10
2023-01-25T20:37:03.674Z,1.10
2023-01-25T20:39:32.536Z,1.13
2023-01-25T20:42:03.190Z,0.90
2023-01-25T20:44:32.127Z,1.20
2023-01-25T20:47:01.443Z,1.10
2023-01-25T20:49:30.332Z,0.90
2023-01-25T20:51:59.097Z,1.20
2023-01-25T20:54:27.981Z,1.50
2023-01-25T20:56:57.341Z,1.20
2023-01-25T20:59:27.640Z,1.27
2023-01-25T21:01:56.492Z,1.20
2023-01-25T21:04:25.536Z,1.77
2023-01-25T21:06:54.353Z,1.10
2023-01-25T21:09:25.598Z,0.97
2023-01-25T21:11:55.563Z,1.20
2023-01-25T21:14:24.458Z,1.20
2023-01-25T21:16:56.008Z,0.97
2023-01-25T21:19:24.935Z,1.10
2023-01-25T21:21:53.799Z,1.20
2023-01-25T21:24:22.989Z,0.90
2023-01-25T21:26:52.058Z,1.40
2023-01-25T21:29:21.370Z,0.90
2023-01-25T21:31:53.359Z,1.00
2023-01-25T21:34:23.797Z,1.17
2023-01-25T21:36:52.887Z,1.00
2023-01-25T21:39:22.408Z,1.03
2023-01-25T21:41:51.279Z,0.90
2023-01-25T21:44:37.466Z,1.00
2023-01-25T21:47:29.011Z,1.27
2023-01-25T21:50:14.352Z,0.80
2023-01-25T21:52:43.471Z,1.10
2023-01-25T21:55:12.484Z,1.50
2023-01-25T21:57:47.297Z,1.00
2023-01-25T22:00:17.586Z,2.70
2023-01-25T22:02:46.424Z,1.50
2023-01-25T22:05:16.889Z,0.67
2023-01-25T22:07:45.666Z,0.93
2023-01-25T22:10:14.591Z,0.73
2023-01-25T22:12:43.676Z,0.80
2023-01-25T22:15:13.380Z,0.70
2023-01-25T22:17:42.409Z,1.00
2023-01-25T22:20:12.840Z,0.90
2023-01-25T22:22:43.403Z,0.90
2023-01-25T22:25:13.213Z,1.40
2023-01-25T22:27:50.594Z,3.90
2023-01-25T22:30:19.463Z,1.13
2023-01-25T22:32:48.245Z,1.20
2023-01-25T22:35:18.254Z,1.50
2023-01-25T22:37:48.575Z,0.80
2023-01-25T22:40:17.596Z,0.90
2023-01-25T22:42:46.414Z,0.80
2023-01-25T22:45:16.177Z,0.90
2023-01-25T22:47:45.182Z,1.10
2023-01-25T22:50:14.150Z,1.30
2023-01-25T22:52:43.049Z,1.40
2023-01-25T22:55:13.324Z,1.07
2023-01-25T22:57:42.133Z,0.93
2023-01-25T23:00:12.421Z,1.40
2023-01-25T23:02:41.555Z,1.10
2023-01-25T23:05:10.628Z,1.20
2023-01-25T23:07:39.452Z,0.87
2023-01-25T23:10:09.367Z,1.20
2023-01-25T23:12:39.833Z,1.00
2023-01-25T23:15:15.827Z,1.27
2023-01-25T23:18:02.537Z,1.40
2023-01-25T23:20:31.652Z,1.10
2023-01-25T23:23:00.526Z,0.90
2023-01-25T23:25:30.541Z,1.17
2023-01-25T23:28:00.804Z,1.93
2023-01-25T23:30:29.683Z,1.80
2023-01-25T23:32:59.085Z,1.60
2023-01-25T23:35:30.473Z,1.30
2023-01-25T23:37:59.410Z,1.20
2023-01-25T23:40:28.183Z,1.27
2023-01-25T23:42:57.893Z,1.07
2023-01-25T23:45:28.158Z,1.37
2023-01-25T23:47:56.942Z,1.40
2023-01-25T23:50:25.738Z,1.80
2023-01-25T23:52:54.572Z,2.23
2023-01-25T23:55:23.370Z,1.90
2023-01-25T23:57:54.864Z,1.20
